sensor_id;sensor_type;location;lat;lon;timestamp;temperature;humidity
17815;DHT22;9031;50.974;11.330;2023-02-04T00:00:16;6.00;99.90
17815;DHT22;9031;50.974;11.330;2023-02-04T00:02:42;5.90;99.90
17815;DHT22;9031;50.974;11.330;2023-02-04T00:05:08;5.90;99.90
17815;DHT22;9031;50.974;11.330;2023-02-04T00:07:34;5.90;99.90
17815;DHT22;9031;50.974;11.330;2023-02-04T00:09:59;5.90;99.90
17815;DHT22;9031;50.974;11.330;2023-02-04T00:12:25;5.80;99.90
17815;DHT22;9031;50.974;11.330;2023-02-04T00:14:50;5.70;99.90
17815;DHT22;9031;50.974;11.330;2023-02-04T00:17:16;5.60;99.90
17815;DHT22;9031;50.974;11.330;2023-02-04T00:19:42;5.60;99.90
17815;DHT22;9031;50.974;11.330;2023-02-04T00:22:08;5.60;99.90
17815;DHT22;9031;50.974;11.330;2023-02-04T00:24:34;5.60;99.90
17815;DHT22;9031;50.974;11.330;2023-02-04T00:27:01;5.60;99.90
17815;DHT22;9031;50.974;11.330;2023-02-04T00:29:27;5.60;99.90
17815;DHT22;9031;50.974;11.330;2023-02-04T00:31:52;5.60;99.90
17815;DHT22;9031;50.974;11.330;2023-02-04T00:34:18;5.60;99.90
17815;DHT22;9031;50.974;11.330;2023-02-04T00:36:44;5.70;99.90
17815;DHT22;9031;50.974;11.330;2023-02-04T00:39:10;5.70;99.90
17815;DHT22;9031;50.974;11.330;2023-02-04T00:41:35;5.60;99.90
17815;DHT22;9031;50.974;11.330;2023-02-04T00:44:01;5.60;99.90
17815;DHT22;9031;50.974;11.330;2023-02-04T00:46:26;5.60;99.90
17815;DHT22;9031;50.974;11.330;2023-02-04T00:48:52;5.50;99.90
17815;DHT22;9031;50.974;11.330;2023-02-04T00:51:17;5.50;99.90
17815;DHT22;9031;50.974;11.330;2023-02-04T00:53:43;5.40;99.90
17815;DHT22;9031;50.974;11.330;2023-02-04T00:56:08;5.40;99.90
17815;DHT22;9031;50.974;11.330;2023-02-04T00:58:34;5.40;99.90
17815;DHT22;9031;50.974;11.330;2023-02-04T01:00:59;5.30;99.90
17815;DHT22;9031;50.974;11.330;2023-02-04T01:03:25;5.30;99.90
17815;DHT22;9031;50.974;11.330;2023-02-04T01:05:50;5.30;99.90
17815;DHT22;9031;50.974;11.330;2023-02-04T01:08:16;5.30;99.90
17815;DHT22;9031;50.974;11.330;2023-02-04T01:10:41;5.30;99.90
17815;DHT22;9031;50.974;11.330;2023-02-04T01:13:08;5.30;99.90
17815;DHT22;9031;50.974;11.330;2023-02-04T01:15:34;5.30;99.90
17815;DHT22;9031;50.974;11.330;2023-02-04T01:18:00;5.30;99.90
17815;DHT22;9031;50.974;11.330;2023-02-04T01:20:25;5.30;99.90
17815;DHT22;9031;50.974;11.330;2023-02-04T01:22:51;5.40;99.90
17815;DHT22;9031;50.974;11.330;2023-02-04T01:25:16;5.30;99.90
17815;DHT22;9031;50.974;11.330;2023-02-04T01:27:45;5.40;99.90
17815;DHT22;9031;50.974;11.330;2023-02-04T01:30:13;5.40;99.90
17815;DHT22;9031;50.974;11.330;2023-02-04T01:32:40;5.30;99.90
17815;DHT22;9031;50.974;11.330;2023-02-04T01:35:06;5.30;99.90
17815;DHT22;9031;50.974;11.330;2023-02-04T01:37:32;5.30;99.90
17815;DHT22;9031;50.974;11.330;2023-02-04T01:39:57;5.30;99.90
17815;DHT22;9031;50.974;11.330;2023-02-04T01:42:23;5.30;99.90
17815;DHT22;9031;50.974;11.330;2023-02-04T01:44:48;5.30;99.90
17815;DHT22;9031;50.974;11.330;2023-02-04T01:47:15;5.30;99.90
17815;DHT22;9031;50.974;11.330;2023-02-04T01:49:40;5.30;99.90
17815;DHT22;9031;50.974;11.330;2023-02-04T01:52:06;5.30;99.90
17815;DHT22;9031;50.974;11.330;2023-02-04T01:54:33;5.40;99.90
17815;DHT22;9031;50.974;11.330;2023-02-04T01:56:58;5.10;99.90
17815;DHT22;9031;50.974;11.330;2023-02-04T01:59:25;4.60;99.90
17815;DHT22;9031;50.974;11.330;2023-02-04T02:01:51;4.20;99.90
17815;DHT22;9031;50.974;11.330;2023-02-04T02:04:20;3.80;99.90
17815;DHT22;9031;50.974;11.330;2023-02-04T02:06:54;3.50;99.90
17815;DHT22;9031;50.974;11.330;2023-02-04T02:09:21;3.40;99.90
17815;DHT22;9031;50.974;11.330;2023-02-04T02:11:47;3.40;99.90
17815;DHT22;9031;50.974;11.330;2023-02-04T02:14:13;3.50;99.90
17815;DHT22;9031;50.974;11.330;2023-02-04T02:16:39;3.50;99.90
17815;DHT22;9031;50.974;11.330;2023-02-04T02:19:05;3.50;99.90
17815;DHT22;9031;50.974;11.330;2023-02-04T02:21:43;3.40;99.90
17815;DHT22;9031;50.974;11.330;2023-02-04T02:24:30;3.40;99.90
17815;DHT22;9031;50.974;11.330;2023-02-04T02:26:57;3.50;99.90
17815;DHT22;9031;50.974;11.330;2023-02-04T02:29:24;3.60;99.90
17815;DHT22;9031;50.974;11.330;2023-02-04T02:31:50;3.60;99.90
17815;DHT22;9031;50.974;11.330;2023-02-04T02:34:16;3.70;99.90
17815;DHT22;9031;50.974;11.330;2023-02-04T02:36:42;3.70;99.90
17815;DHT22;9031;50.974;11.330;2023-02-04T02:39:08;3.80;99.90
17815;DHT22;9031;50.974;11.330;2023-02-04T02:41:34;3.80;99.90
17815;DHT22;9031;50.974;11.330;2023-02-04T02:44:00;3.80;99.90
17815;DHT22;9031;50.974;11.330;2023-02-04T02:46:26;3.80;99.90
17815;DHT22;9031;50.974;11.330;2023-02-04T02:48:52;3.80;99.90
17815;DHT22;9031;50.974;11.330;2023-02-04T02:51:17;3.90;99.90
17815;DHT22;9031;50.974;11.330;2023-02-04T02:53:48;4.00;99.90
17815;DHT22;9031;50.974;11.330;2023-02-04T02:56:15;4.10;99.90
17815;DHT22;9031;50.974;11.330;2023-02-04T02:58:41;4.00;99.90
17815;DHT22;9031;50.974;11.330;2023-02-04T03:01:08;4.00;99.90
17815;DHT22;9031;50.974;11.330;2023-02-04T03:03:49;4.00;99.90
17815;DHT22;9031;50.974;11.330;2023-02-04T03:06:18;4.00;99.90
17815;DHT22;9031;50.974;11.330;2023-02-04T03:08:46;4.00;99.90
17815;DHT22;9031;50.974;11.330;2023-02-04T03:11:12;4.00;99.90
17815;DHT22;9031;50.974;11.330;2023-02-04T03:13:38;3.90;99.90
17815;DHT22;9031;50.974;11.330;2023-02-04T03:16:05;3.90;99.90
17815;DHT22;9031;50.974;11.330;2023-02-04T03:18:32;4.00;99.90
17815;DHT22;9031;50.974;11.330;2023-02-04T03:20:58;3.90;99.90
17815;DHT22;9031;50.974;11.330;2023-02-04T03:23:24;3.90;99.90
17815;DHT22;9031;50.974;11.330;2023-02-04T03:25:50;3.80;99.90
17815;DHT22;9031;50.974;11.330;2023-02-04T03:28:16;3.80;99.90
17815;DHT22;9031;50.974;11.330;2023-02-04T03:30:41;3.70;99.90
17815;DHT22;9031;50.974;11.330;2023-02-04T03:33:07;3.80;99.90
17815;DHT22;9031;50.974;11.330;2023-02-04T03:35:32;3.80;99.90
17815;DHT22;9031;50.974;11.330;2023-02-04T03:37:58;3.80;99.90
17815;DHT22;9031;50.974;11.330;2023-02-04T03:40:24;3.80;99.90
17815;DHT22;9031;50.974;11.330;2023-02-04T03:42:49;3.80;99.90
17815;DHT22;9031;50.974;11.330;2023-02-04T03:45:15;3.70;99.90
17815;DHT22;9031;50.974;11.330;2023-02-04T03:47:41;3.80;99.90
17815;DHT22;9031;50.974;11.330;2023-02-04T03:50:06;3.80;99.90
17815;DHT22;9031;50.974;11.330;2023-02-04T03:52:32;3.80;99.90
17815;DHT22;9031;50.974;11.330;2023-02-04T03:54:57;3.80;99.90
17815;DHT22;9031;50.974;11.330;2023-02-04T03:57:23;3.80;99.90
17815;DHT22;9031;50.974;11.330;2023-02-04T03:59:48;3.70;99.90
17815;DHT22;9031;50.974;11.330;2023-02-04T04:02:14;3.70;99.90
17815;DHT22;9031;50.974;11.330;2023-02-04T04:04:39;3.80;99.90
17815;DHT22;9031;50.974;11.330;2023-02-04T04:07:05;3.80;99.90
17815;DHT22;9031;50.974;11.330;2023-02-04T04:09:31;3.70;99.90
17815;DHT22;9031;50.974;11.330;2023-02-04T04:11:56;3.60;99.90
17815;DHT22;9031;50.974;11.330;2023-02-04T04:14:22;3.60;99.90
17815;DHT22;9031;50.974;11.330;2023-02-04T04:16:47;3.60;99.90
17815;DHT22;9031;50.974;11.330;2023-02-04T04:19:13;3.60;99.90
17815;DHT22;9031;50.974;11.330;2023-02-04T04:21:38;3.50;99.90
17815;DHT22;9031;50.974;11.330;2023-02-04T04:24:04;3.50;99.90
17815;DHT22;9031;50.974;11.330;2023-02-04T04:26:29;3.40;99.90
17815;DHT22;9031;50.974;11.330;2023-02-04T04:28:55;3.40;99.90
17815;DHT22;9031;50.974;11.330;2023-02-04T04:31:20;3.50;99.90
17815;DHT22;9031;50.974;11.330;2023-02-04T04:33:46;3.50;99.90
17815;DHT22;9031;50.974;11.330;2023-02-04T04:36:11;3.40;99.90
17815;DHT22;9031;50.974;11.330;2023-02-04T04:38:37;3.30;99.90
17815;DHT22;9031;50.974;11.330;2023-02-04T04:41:02;3.30;99.90
17815;DHT22;9031;50.974;11.330;2023-02-04T04:43:28;3.20;99.90
17815;DHT22;9031;50.974;11.330;2023-02-04T04:45:53;3.20;99.90
17815;DHT22;9031;50.974;11.330;2023-02-04T04:48:19;3.10;99.90
17815;DHT22;9031;50.974;11.330;2023-02-04T04:50:45;3.10;99.90
17815;DHT22;9031;50.974;11.330;2023-02-04T04:53:11;3.10;99.90
17815;DHT22;9031;50.974;11.330;2023-02-04T04:55:37;3.10;99.90
17815;DHT22;9031;50.974;11.330;2023-02-04T04:58:04;3.10;99.90
17815;DHT22;9031;50.974;11.330;2023-02-04T05:00:30;3.20;99.90
17815;DHT22;9031;50.974;11.330;2023-02-04T05:02:55;3.20;99.90
17815;DHT22;9031;50.974;11.330;2023-02-04T05:05:21;3.10;99.90
17815;DHT22;9031;50.974;11.330;2023-02-04T05:07:46;3.30;99.90
17815;DHT22;9031;50.974;11.330;2023-02-04T05:10:11;3.20;99.90
17815;DHT22;9031;50.974;11.330;2023-02-04T05:12:37;3.40;99.90
17815;DHT22;9031;50.974;11.330;2023-02-04T05:15:03;3.40;99.90
17815;DHT22;9031;50.974;11.330;2023-02-04T05:17:29;3.40;99.90
17815;DHT22;9031;50.974;11.330;2023-02-04T05:19:55;3.40;99.90
17815;DHT22;9031;50.974;11.330;2023-02-04T05:22:20;3.50;99.90
17815;DHT22;9031;50.974;11.330;2023-02-04T05:24:46;3.50;99.90
17815;DHT22;9031;50.974;11.330;2023-02-04T05:27:11;3.50;99.90
17815;DHT22;9031;50.974;11.330;2023-02-04T05:29:36;3.50;99.90
17815;DHT22;9031;50.974;11.330;2023-02-04T05:32:02;3.60;99.90
17815;DHT22;9031;50.974;11.330;2023-02-04T05:34:28;3.60;99.90
17815;DHT22;9031;50.974;11.330;2023-02-04T05:36:53;3.80;99.90
17815;DHT22;9031;50.974;11.330;2023-02-04T05:39:19;3.80;99.90
17815;DHT22;9031;50.974;11.330;2023-02-04T05:41:44;3.80;99.90
17815;DHT22;9031;50.974;11.330;2023-02-04T05:44:10;3.80;99.90
17815;DHT22;9031;50.974;11.330;2023-02-04T05:46:35;3.80;99.90
17815;DHT22;9031;50.974;11.330;2023-02-04T05:49:01;3.70;99.90
17815;DHT22;9031;50.974;11.330;2023-02-04T05:51:27;3.70;99.90
17815;DHT22;9031;50.974;11.330;2023-02-04T05:53:52;3.80;99.90
17815;DHT22;9031;50.974;11.330;2023-02-04T05:56:18;3.50;99.90
17815;DHT22;9031;50.974;11.330;2023-02-04T05:58:43;3.60;99.90
17815;DHT22;9031;50.974;11.330;2023-02-04T06:01:09;3.50;99.90
17815;DHT22;9031;50.974;11.330;2023-02-04T06:03:34;3.50;99.90
17815;DHT22;9031;50.974;11.330;2023-02-04T06:06:00;3.50;99.90
17815;DHT22;9031;50.974;11.330;2023-02-04T06:08:25;3.60;99.90
17815;DHT22;9031;50.974;11.330;2023-02-04T06:10:51;3.50;99.90
17815;DHT22;9031;50.974;11.330;2023-02-04T06:13:16;3.60;99.90
17815;DHT22;9031;50.974;11.330;2023-02-04T06:15:42;3.70;99.90
17815;DHT22;9031;50.974;11.330;2023-02-04T06:18:07;3.70;99.90
17815;DHT22;9031;50.974;11.330;2023-02-04T06:20:33;3.80;99.90
17815;DHT22;9031;50.974;11.330;2023-02-04T06:22:58;3.80;99.90
17815;DHT22;9031;50.974;11.330;2023-02-04T06:25:24;3.80;99.90
17815;DHT22;9031;50.974;11.330;2023-02-04T06:27:49;3.70;99.90
17815;DHT22;9031;50.974;11.330;2023-02-04T06:30:15;3.70;99.90
17815;DHT22;9031;50.974;11.330;2023-02-04T06:32:41;3.70;99.90
17815;DHT22;9031;50.974;11.330;2023-02-04T06:35:07;4.00;99.90
17815;DHT22;9031;50.974;11.330;2023-02-04T06:37:33;4.10;99.90
17815;DHT22;9031;50.974;11.330;2023-02-04T06:39:58;4.00;99.90
17815;DHT22;9031;50.974;11.330;2023-02-04T06:42:24;3.80;99.90
17815;DHT22;9031;50.974;11.330;2023-02-04T06:44:50;3.60;99.90
17815;DHT22;9031;50.974;11.330;2023-02-04T06:47:16;3.40;99.90
17815;DHT22;9031;50.974;11.330;2023-02-04T06:49:42;3.30;99.90
17815;DHT22;9031;50.974;11.330;2023-02-04T06:52:07;3.20;99.90
17815;DHT22;9031;50.974;11.330;2023-02-04T06:54:33;3.20;99.90
17815;DHT22;9031;50.974;11.330;2023-02-04T06:56:59;3.40;99.90
17815;DHT22;9031;50.974;11.330;2023-02-04T06:59:34;3.40;99.90
17815;DHT22;9031;50.974;11.330;2023-02-04T07:02:01;3.50;99.90
17815;DHT22;9031;50.974;11.330;2023-02-04T07:04:26;3.40;99.90
17815;DHT22;9031;50.974;11.330;2023-02-04T07:06:52;3.40;99.90
17815;DHT22;9031;50.974;11.330;2023-02-04T07:09:18;3.40;99.90
17815;DHT22;9031;50.974;11.330;2023-02-04T07:11:43;3.40;99.90
17815;DHT22;9031;50.974;11.330;2023-02-04T07:14:09;3.40;99.90
17815;DHT22;9031;50.974;11.330;2023-02-04T07:16:35;3.40;99.90
17815;DHT22;9031;50.974;11.330;2023-02-04T07:19:00;3.40;99.90
17815;DHT22;9031;50.974;11.330;2023-02-04T07:21:26;3.40;99.90
17815;DHT22;9031;50.974;11.330;2023-02-04T07:23:52;3.50;99.90
17815;DHT22;9031;50.974;11.330;2023-02-04T07:26:17;3.50;99.90
17815;DHT22;9031;50.974;11.330;2023-02-04T07:28:43;3.30;99.90
17815;DHT22;9031;50.974;11.330;2023-02-04T07:31:09;3.40;99.90
17815;DHT22;9031;50.974;11.330;2023-02-04T07:33:35;3.30;99.90
17815;DHT22;9031;50.974;11.330;2023-02-04T07:36:00;3.20;99.90
17815;DHT22;9031;50.974;11.330;2023-02-04T07:38:26;3.00;99.90
17815;DHT22;9031;50.974;11.330;2023-02-04T07:40:51;3.10;99.90
17815;DHT22;9031;50.974;11.330;2023-02-04T07:43:17;3.20;99.90
17815;DHT22;9031;50.974;11.330;2023-02-04T07:45:42;3.20;99.90
17815;DHT22;9031;50.974;11.330;2023-02-04T07:48:08;3.00;99.90
17815;DHT22;9031;50.974;11.330;2023-02-04T07:50:35;3.00;99.90
17815;DHT22;9031;50.974;11.330;2023-02-04T07:53:01;2.90;99.90
17815;DHT22;9031;50.974;11.330;2023-02-04T07:55:26;3.00;99.90
17815;DHT22;9031;50.974;11.330;2023-02-04T07:57:53;3.00;99.90
17815;DHT22;9031;50.974;11.330;2023-02-04T08:00:18;3.00;99.90
17815;DHT22;9031;50.974;11.330;2023-02-04T08:02:44;2.90;99.90
17815;DHT22;9031;50.974;11.330;2023-02-04T08:05:10;2.80;99.90
17815;DHT22;9031;50.974;11.330;2023-02-04T08:07:35;2.90;99.90
17815;DHT22;9031;50.974;11.330;2023-02-04T08:10:02;3.00;99.90
17815;DHT22;9031;50.974;11.330;2023-02-04T08:12:28;3.10;99.90
17815;DHT22;9031;50.974;11.330;2023-02-04T08:14:54;3.20;99.90
17815;DHT22;9031;50.974;11.330;2023-02-04T08:17:20;3.30;99.90
17815;DHT22;9031;50.974;11.330;2023-02-04T08:19:46;3.30;99.90
17815;DHT22;9031;50.974;11.330;2023-02-04T08:22:11;3.50;99.90
17815;DHT22;9031;50.974;11.330;2023-02-04T08:24:37;3.60;99.90
17815;DHT22;9031;50.974;11.330;2023-02-04T08:27:02;3.70;99.90
17815;DHT22;9031;50.974;11.330;2023-02-04T08:29:28;3.90;99.90
17815;DHT22;9031;50.974;11.330;2023-02-04T08:31:53;4.10;99.90
17815;DHT22;9031;50.974;11.330;2023-02-04T08:34:19;4.50;99.90
17815;DHT22;9031;50.974;11.330;2023-02-04T08:36:44;4.60;99.90
17815;DHT22;9031;50.974;11.330;2023-02-04T08:39:10;4.60;99.90
17815;DHT22;9031;50.974;11.330;2023-02-04T08:41:37;4.50;99.90
17815;DHT22;9031;50.974;11.330;2023-02-04T08:44:02;4.60;99.90
17815;DHT22;9031;50.974;11.330;2023-02-04T08:46:28;4.80;99.90
17815;DHT22;9031;50.974;11.330;2023-02-04T08:48:54;4.70;99.90
17815;DHT22;9031;50.974;11.330;2023-02-04T08:51:19;4.60;99.90
17815;DHT22;9031;50.974;11.330;2023-02-04T08:53:45;4.50;99.90
17815;DHT22;9031;50.974;11.330;2023-02-04T08:56:10;4.30;99.90
17815;DHT22;9031;50.974;11.330;2023-02-04T08:58:41;4.20;99.90
17815;DHT22;9031;50.974;11.330;2023-02-04T09:01:06;4.20;99.90
17815;DHT22;9031;50.974;11.330;2023-02-04T09:03:32;4.30;99.90
17815;DHT22;9031;50.974;11.330;2023-02-04T09:05:57;4.50;99.90
17815;DHT22;9031;50.974;11.330;2023-02-04T09:08:23;4.60;99.90
17815;DHT22;9031;50.974;11.330;2023-02-04T09:10:48;4.50;99.90
17815;DHT22;9031;50.974;11.330;2023-02-04T09:13:14;4.40;99.90
17815;DHT22;9031;50.974;11.330;2023-02-04T09:15:39;4.30;99.90
17815;DHT22;9031;50.974;11.330;2023-02-04T09:18:05;4.50;99.90
17815;DHT22;9031;50.974;11.330;2023-02-04T09:20:36;4.60;99.90
17815;DHT22;9031;50.974;11.330;2023-02-04T09:23:03;4.80;99.90
17815;DHT22;9031;50.974;11.330;2023-02-04T09:25:33;4.90;99.90
17815;DHT22;9031;50.974;11.330;2023-02-04T09:27:58;5.00;99.90
17815;DHT22;9031;50.974;11.330;2023-02-04T09:30:24;4.90;99.90
17815;DHT22;9031;50.974;11.330;2023-02-04T09:32:49;4.90;99.90
17815;DHT22;9031;50.974;11.330;2023-02-04T09:35:15;5.00;99.90
17815;DHT22;9031;50.974;11.330;2023-02-04T09:37:41;5.20;99.90
17815;DHT22;9031;50.974;11.330;2023-02-04T09:40:08;5.20;99.90
17815;DHT22;9031;50.974;11.330;2023-02-04T09:42:34;5.50;99.90
17815;DHT22;9031;50.974;11.330;2023-02-04T09:44:59;5.90;99.90
17815;DHT22;9031;50.974;11.330;2023-02-04T09:47:27;5.80;99.90
17815;DHT22;9031;50.974;11.330;2023-02-04T09:49:53;5.90;99.90
17815;DHT22;9031;50.974;11.330;2023-02-04T09:52:19;5.60;99.90
17815;DHT22;9031;50.974;11.330;2023-02-04T09:54:45;5.60;99.90
17815;DHT22;9031;50.974;11.330;2023-02-04T09:57:18;5.70;99.90
17815;DHT22;9031;50.974;11.330;2023-02-04T09:59:45;6.50;99.90
17815;DHT22;9031;50.974;11.330;2023-02-04T10:02:23;7.30;99.90
17815;DHT22;9031;50.974;11.330;2023-02-04T10:04:51;7.80;99.90
17815;DHT22;9031;50.974;11.330;2023-02-04T10:07:18;8.10;99.90
17815;DHT22;9031;50.974;11.330;2023-02-04T10:09:47;8.90;99.90
17815;DHT22;9031;50.974;11.330;2023-02-04T10:12:13;9.00;99.90
17815;DHT22;9031;50.974;11.330;2023-02-04T10:14:39;8.30;99.90
17815;DHT22;9031;50.974;11.330;2023-02-04T10:17:04;7.60;99.90
17815;DHT22;9031;50.974;11.330;2023-02-04T10:19:30;6.60;99.90
17815;DHT22;9031;50.974;11.330;2023-02-04T10:21:56;6.30;99.90
17815;DHT22;9031;50.974;11.330;2023-02-04T10:24:23;6.10;99.90
17815;DHT22;9031;50.974;11.330;2023-02-04T10:27:04;5.80;99.90
17815;DHT22;9031;50.974;11.330;2023-02-04T10:29:31;5.80;99.90
17815;DHT22;9031;50.974;11.330;2023-02-04T10:31:57;5.50;99.90
17815;DHT22;9031;50.974;11.330;2023-02-04T10:34:31;5.40;99.90
17815;DHT22;9031;50.974;11.330;2023-02-04T10:36:57;5.70;99.90
17815;DHT22;9031;50.974;11.330;2023-02-04T10:39:28;5.90;99.90
17815;DHT22;9031;50.974;11.330;2023-02-04T10:41:59;5.70;99.90
17815;DHT22;9031;50.974;11.330;2023-02-04T10:47:03;6.30;99.90
17815;DHT22;9031;50.974;11.330;2023-02-04T10:49:29;5.70;99.90
17815;DHT22;9031;50.974;11.330;2023-02-04T10:51:55;5.80;99.90
17815;DHT22;9031;50.974;11.330;2023-02-04T10:54:28;6.50;99.90
17815;DHT22;9031;50.974;11.330;2023-02-04T10:56:57;7.30;99.90
17815;DHT22;9031;50.974;11.330;2023-02-04T10:59:23;7.90;99.90
17815;DHT22;9031;50.974;11.330;2023-02-04T11:01:55;7.80;99.90
17815;DHT22;9031;50.974;11.330;2023-02-04T11:04:22;8.00;99.90
17815;DHT22;9031;50.974;11.330;2023-02-04T11:06:47;7.50;99.90
17815;DHT22;9031;50.974;11.330;2023-02-04T11:09:14;7.10;99.90
17815;DHT22;9031;50.974;11.330;2023-02-04T11:11:48;6.40;99.90
17815;DHT22;9031;50.974;11.330;2023-02-04T11:14:32;5.70;99.90
17815;DHT22;9031;50.974;11.330;2023-02-04T11:17:00;5.60;99.90
17815;DHT22;9031;50.974;11.330;2023-02-04T11:19:37;5.50;99.90
17815;DHT22;9031;50.974;11.330;2023-02-04T11:22:20;5.70;99.90
17815;DHT22;9031;50.974;11.330;2023-02-04T11:24:46;5.70;99.90
17815;DHT22;9031;50.974;11.330;2023-02-04T11:27:21;5.80;99.90
17815;DHT22;9031;50.974;11.330;2023-02-04T11:29:47;5.80;99.90
17815;DHT22;9031;50.974;11.330;2023-02-04T11:32:31;5.50;99.90
17815;DHT22;9031;50.974;11.330;2023-02-04T11:37:39;6.10;99.90
17815;DHT22;9031;50.974;11.330;2023-02-04T11:40:30;6.30;99.90
17815;DHT22;9031;50.974;11.330;2023-02-04T11:42:59;6.20;99.90
17815;DHT22;9031;50.974;11.330;2023-02-04T11:45:35;5.70;99.90
17815;DHT22;9031;50.974;11.330;2023-02-04T11:48:09;7.00;99.90
17815;DHT22;9031;50.974;11.330;2023-02-04T11:50:36;6.40;99.90
17815;DHT22;9031;50.974;11.330;2023-02-04T11:53:03;8.50;99.90
17815;DHT22;9031;50.974;11.330;2023-02-04T11:55:30;10.10;99.90
17815;DHT22;9031;50.974;11.330;2023-02-04T11:57:56;11.20;99.90
17815;DHT22;9031;50.974;11.330;2023-02-04T12:00:29;13.50;99.90
17815;DHT22;9031;50.974;11.330;2023-02-04T12:03:01;16.60;99.90
17815;DHT22;9031;50.974;11.330;2023-02-04T12:05:38;19.80;99.90
17815;DHT22;9031;50.974;11.330;2023-02-04T12:10:50;21.20;98.00
17815;DHT22;9031;50.974;11.330;2023-02-04T12:13:23;21.70;97.40
17815;DHT22;9031;50.974;11.330;2023-02-04T12:16:05;20.80;95.20
17815;DHT22;9031;50.974;11.330;2023-02-04T12:18:33;21.40;94.20
17815;DHT22;9031;50.974;11.330;2023-02-04T12:21:00;21.20;92.80
17815;DHT22;9031;50.974;11.330;2023-02-04T12:23:27;18.00;95.70
17815;DHT22;9031;50.974;11.330;2023-02-04T12:25:53;16.30;96.90
17815;DHT22;9031;50.974;11.330;2023-02-04T12:28:19;18.50;97.20
17815;DHT22;9031;50.974;11.330;2023-02-04T12:30:45;21.00;93.50
17815;DHT22;9031;50.974;11.330;2023-02-04T12:33:10;21.60;91.90
17815;DHT22;9031;50.974;11.330;2023-02-04T12:35:36;20.70;92.00
17815;DHT22;9031;50.974;11.330;2023-02-04T12:38:02;19.40;93.60
17815;DHT22;9031;50.974;11.330;2023-02-04T12:40:28;17.00;94.90
17815;DHT22;9031;50.974;11.330;2023-02-04T12:42:53;13.40;98.30
17815;DHT22;9031;50.974;11.330;2023-02-04T12:45:19;11.10;99.90
17815;DHT22;9031;50.974;11.330;2023-02-04T12:47:45;9.80;99.90
17815;DHT22;9031;50.974;11.330;2023-02-04T12:50:13;9.10;99.90
17815;DHT22;9031;50.974;11.330;2023-02-04T12:52:39;8.40;99.90
17815;DHT22;9031;50.974;11.330;2023-02-04T12:55:06;7.80;99.90
17815;DHT22;9031;50.974;11.330;2023-02-04T12:57:32;7.70;99.90
17815;DHT22;9031;50.974;11.330;2023-02-04T12:59:59;7.50;99.90
17815;DHT22;9031;50.974;11.330;2023-02-04T13:02:26;7.70;99.90
17815;DHT22;9031;50.974;11.330;2023-02-04T13:04:52;7.80;99.90
17815;DHT22;9031;50.974;11.330;2023-02-04T13:07:17;7.50;99.90
17815;DHT22;9031;50.974;11.330;2023-02-04T13:09:43;7.10;99.90
17815;DHT22;9031;50.974;11.330;2023-02-04T13:12:11;6.80;99.90
17815;DHT22;9031;50.974;11.330;2023-02-04T13:14:42;6.60;99.90
17815;DHT22;9031;50.974;11.330;2023-02-04T13:17:08;6.80;99.90
17815;DHT22;9031;50.974;11.330;2023-02-04T13:19:34;6.90;99.90
17815;DHT22;9031;50.974;11.330;2023-02-04T13:22:00;6.70;99.90
17815;DHT22;9031;50.974;11.330;2023-02-04T13:24:26;6.60;99.90
17815;DHT22;9031;50.974;11.330;2023-02-04T13:26:52;6.60;99.90
17815;DHT22;9031;50.974;11.330;2023-02-04T13:29:18;6.60;99.90
17815;DHT22;9031;50.974;11.330;2023-02-04T13:31:44;6.70;99.90
17815;DHT22;9031;50.974;11.330;2023-02-04T13:34:09;6.80;99.90
17815;DHT22;9031;50.974;11.330;2023-02-04T13:36:35;6.90;99.90
17815;DHT22;9031;50.974;11.330;2023-02-04T13:39:01;6.90;99.90
17815;DHT22;9031;50.974;11.330;2023-02-04T13:41:27;6.90;99.90
17815;DHT22;9031;50.974;11.330;2023-02-04T13:43:53;6.80;99.90
17815;DHT22;9031;50.974;11.330;2023-02-04T13:46:19;6.60;99.90
17815;DHT22;9031;50.974;11.330;2023-02-04T13:48:44;6.70;99.90
17815;DHT22;9031;50.974;11.330;2023-02-04T13:51:10;6.80;99.90
17815;DHT22;9031;50.974;11.330;2023-02-04T13:53:35;6.90;99.90
17815;DHT22;9031;50.974;11.330;2023-02-04T13:56:01;7.70;99.90
17815;DHT22;9031;50.974;11.330;2023-02-04T13:58:26;7.80;99.90
17815;DHT22;9031;50.974;11.330;2023-02-04T14:00:52;7.60;99.90
17815;DHT22;9031;50.974;11.330;2023-02-04T14:03:22;7.30;99.90
17815;DHT22;9031;50.974;11.330;2023-02-04T14:05:49;6.80;99.90
17815;DHT22;9031;50.974;11.330;2023-02-04T14:08:14;6.80;99.90
17815;DHT22;9031;50.974;11.330;2023-02-04T14:10:40;6.80;99.90
17815;DHT22;9031;50.974;11.330;2023-02-04T14:13:05;6.60;99.90
17815;DHT22;9031;50.974;11.330;2023-02-04T14:15:31;6.40;99.90
17815;DHT22;9031;50.974;11.330;2023-02-04T14:17:59;6.30;99.90
17815;DHT22;9031;50.974;11.330;2023-02-04T14:20:24;6.40;99.90
17815;DHT22;9031;50.974;11.330;2023-02-04T14:22:50;6.20;99.90
17815;DHT22;9031;50.974;11.330;2023-02-04T14:25:15;6.20;99.90
17815;DHT22;9031;50.974;11.330;2023-02-04T14:27:41;6.30;99.90
17815;DHT22;9031;50.974;11.330;2023-02-04T14:30:18;6.30;99.90
17815;DHT22;9031;50.974;11.330;2023-02-04T14:32:44;6.20;99.90
17815;DHT22;9031;50.974;11.330;2023-02-04T14:35:10;6.00;99.90
17815;DHT22;9031;50.974;11.330;2023-02-04T14:37:37;6.00;99.90
17815;DHT22;9031;50.974;11.330;2023-02-04T14:40:02;6.00;99.90
17815;DHT22;9031;50.974;11.330;2023-02-04T14:42:28;6.00;99.90
17815;DHT22;9031;50.974;11.330;2023-02-04T14:44:54;6.10;99.90
17815;DHT22;9031;50.974;11.330;2023-02-04T14:47:19;6.20;99.90
17815;DHT22;9031;50.974;11.330;2023-02-04T14:49:45;6.20;99.90
17815;DHT22;9031;50.974;11.330;2023-02-04T14:52:10;6.00;99.90
17815;DHT22;9031;50.974;11.330;2023-02-04T14:54:36;5.80;99.90
17815;DHT22;9031;50.974;11.330;2023-02-04T14:57:02;5.90;99.90
17815;DHT22;9031;50.974;11.330;2023-02-04T14:59:28;5.90;99.90
17815;DHT22;9031;50.974;11.330;2023-02-04T15:01:53;6.00;99.90
17815;DHT22;9031;50.974;11.330;2023-02-04T15:04:19;6.00;99.90
17815;DHT22;9031;50.974;11.330;2023-02-04T15:06:44;6.20;99.90
17815;DHT22;9031;50.974;11.330;2023-02-04T15:09:10;6.30;99.90
17815;DHT22;9031;50.974;11.330;2023-02-04T15:11:36;6.40;99.90
17815;DHT22;9031;50.974;11.330;2023-02-04T15:14:01;6.50;99.90
17815;DHT22;9031;50.974;11.330;2023-02-04T15:16:27;6.40;99.90
17815;DHT22;9031;50.974;11.330;2023-02-04T15:18:52;6.20;99.90
17815;DHT22;9031;50.974;11.330;2023-02-04T15:21:18;6.10;99.90
17815;DHT22;9031;50.974;11.330;2023-02-04T15:23:43;6.10;99.90
17815;DHT22;9031;50.974;11.330;2023-02-04T15:26:14;6.00;99.90
17815;DHT22;9031;50.974;11.330;2023-02-04T15:28:40;6.10;99.90
17815;DHT22;9031;50.974;11.330;2023-02-04T15:31:05;6.10;99.90
17815;DHT22;9031;50.974;11.330;2023-02-04T15:33:31;6.00;99.90
17815;DHT22;9031;50.974;11.330;2023-02-04T15:35:56;5.90;99.90
17815;DHT22;9031;50.974;11.330;2023-02-04T15:38:22;5.80;99.90
17815;DHT22;9031;50.974;11.330;2023-02-04T15:40:48;5.80;99.90
17815;DHT22;9031;50.974;11.330;2023-02-04T15:43:13;5.90;99.90
17815;DHT22;9031;50.974;11.330;2023-02-04T15:45:39;5.80;99.90
17815;DHT22;9031;50.974;11.330;2023-02-04T15:48:08;5.70;99.90